Mae Sot, Thailand
Current Conditions -  °F | °C
As of 9:00 PM on Wednesday 22 Oct 2014 (Local Time) from VTPP Reporting Station
Broken Clouds Broken Clouds  
Wind Chill: 25°   Ceiling: 12000
Heat Index: 26°   Visibility: 4mi
Dew Point: 23°   Wind: 2mph
Humidity: 89%   Direction: 330°NNW
Pressure: 29.94"   Gusts: NA
Location:  16.71°N, 98.57°E
Report Text: VTPP 221400Z 33002KT 6000 SCT023 BKN120 BKN300 25/23 Q1014
Loading
Personal Weather Stations






























Interactive Weather Map
Tropical Storm Tracking
New forecast layout! Learn more

10-Day Weather Forecast

Advertisements
Track Severe Weather on mobile